Time;durP1;ratioP1;P1;durP2;ratioP2;P2;SDS_P1;SDS_P2;PMS_P1;PMS_P2;Temp;Humidity;BMP_temperature;BMP_pressure;BME280_temperature;BME280_humidity;BME280_pressure;Samples;Min_cycle;Max_cycle;Signal;HPM_P1;HPM_P2
2023/04/17 00:06:18;;;;;;;20.60;13.07;;;;;;;9.91;68.10;100476.22;30870465;28;97289;-64
2023/04/17 00:21:18;;;;;;;19.73;12.48;;;;;;;9.90;69.16;100464.75;30868196;28;111066;-64
2023/04/17 00:36:19;;;;;;;19.73;12.77;;;;;;;9.87;69.29;100467.72;30866966;28;96763;-63
2023/04/17 00:51:19;;;;;;;21.65;12.68;;;;;;;9.56;69.39;100470.03;30864723;28;97224;-62
2023/04/17 01:06:19;;;;;;;21.38;13.48;;;;;;;9.29;70.19;100469.19;30864171;28;96733;-63
2023/04/17 01:21:20;;;;;;;23.95;15.18;;;;;;;9.09;70.70;100487.97;30861498;28;108247;-63
2023/04/17 01:36:20;;;;;;;22.88;14.45;;;;;;;8.87;71.28;100481.31;30860454;28;97061;-63
2023/04/17 01:51:21;;;;;;;27.17;15.25;;;;;;;8.66;71.64;100486.91;30858473;28;96785;-63
2023/04/17 02:06:21;;;;;;;24.92;14.77;;;;;;;8.53;72.47;100497.91;30859042;28;96673;-63
2023/04/17 02:21:21;;;;;;;25.58;16.55;;;;;;;8.42;72.62;100506.88;30856798;28;96762;-63
2023/04/17 02:36:22;;;;;;;28.98;17.23;;;;;;;8.42;73.37;100514.84;30855097;28;97024;-63
2023/04/17 02:51:22;;;;;;;31.48;16.92;;;;;;;8.63;73.20;100511.94;30959514;28;97422;-62
2023/04/17 03:06:22;;;;;;;34.58;18.90;;;;;;;8.75;73.25;100509.09;30976020;28;104667;-62
2023/04/17 03:21:23;;;;;;;31.08;19.23;;;;;;;8.66;73.27;100524.09;30974141;28;96730;-63
2023/04/17 03:36:23;;;;;;;30.67;19.08;;;;;;;8.52;73.43;100535.25;30992006;28;106570;-63
2023/04/17 03:51:26;;;;;;;33.42;18.80;;;;;;;8.44;73.54;100544.72;30991404;28;101304;-63
2023/04/17 04:06:28;;;;;;;29.20;18.20;;;;;;;8.42;73.29;100554.66;30991540;28;96859;-63
2023/04/17 04:21:29;;;;;;;31.87;19.20;;;;;;;8.41;73.30;100552.16;30989446;28;96866;-62
2023/04/17 04:36:30;;;;;;;37.92;20.92;;;;;;;8.27;73.35;100566.75;30987145;28;96678;-63
2023/04/17 04:51:32;;;;;;;32.85;21.02;;;;;;;8.18;73.92;100573.75;30983684;28;96806;-61
2023/04/17 05:06:33;;;;;;;30.77;18.83;;;;;;;8.31;73.90;100576.09;30979801;28;97530;-63
2023/04/17 05:21:33;;;;;;;29.60;18.92;;;;;;;8.73;73.68;100590.75;30957625;28;98616;-64
2023/04/17 05:36:34;;;;;;;30.40;19.33;;;;;;;9.45;73.62;100602.25;30971850;28;97322;-62
2023/04/17 05:51:34;;;;;;;25.27;16.23;;;;;;;10.38;73.04;100613.44;30970244;28;113969;-62
2023/04/17 06:06:35;;;;;;;26.10;14.98;;;;;;;11.19;70.94;100620.03;30959281;28;96659;-64
2023/04/17 06:21:35;;;;;;;21.15;12.90;;;;;;;12.05;69.38;100614.41;30974103;28;97434;-63
2023/04/17 06:36:35;;;;;;;22.52;13.25;;;;;;;12.32;67.23;100626.56;30974767;28;97194;-64
2023/04/17 06:51:36;;;;;;;19.20;12.85;;;;;;;13.32;66.79;100639.28;30971548;28;96837;-64
2023/04/17 07:06:38;;;;;;;18.90;11.50;;;;;;;14.35;64.45;100637.13;30985728;28;96979;-65
2023/04/17 07:21:38;;;;;;;17.40;11.03;;;;;;;15.77;61.12;100642.25;30994534;28;97157;-65
2023/04/17 07:36:39;;;;;;;17.40;9.93;;;;;;;16.83;57.05;100652.91;30992201;28;96663;-65
2023/04/17 07:51:40;;;;;;;14.00;9.15;;;;;;;18.13;53.59;100676.22;30989298;28;97189;-65
2023/04/17 08:06:40;;;;;;;15.48;8.75;;;;;;;18.64;50.86;100677.38;30988766;28;96985;-64
2023/04/17 08:21:40;;;;;;;13.30;9.73;;;;;;;19.44;47.23;100673.53;30986663;28;97063;-67
2023/04/17 08:36:41;;;;;;;13.20;10.75;;;;;;;20.39;44.96;100678.00;30986482;28;96797;-64
2023/04/17 08:51:42;;;;;;;16.60;11.50;;;;;;;21.52;41.29;100698.56;30983970;28;96734;-67
2023/04/17 09:06:53;;;;;;;16.13;11.17;;;;;;;23.30;37.94;100697.50;30983997;28;96766;-65
2023/04/17 09:21:53;;;;;;;14.87;10.80;;;;;;;24.29;34.80;100713.63;30995579;28;96751;-64
2023/04/17 09:36:54;;;;;;;17.83;13.57;;;;;;;28.04;29.87;100728.59;30994847;28;96755;-65
2023/04/17 09:51:57;;;;;;;18.95;14.38;;;;;;;27.72;28.08;100717.88;30986784;28;97145;-62
2023/04/17 10:06:57;;;;;;;18.90;15.30;;;;;;;31.20;25.70;100726.25;30979694;28;96830;-61
2023/04/17 10:22:18;;;;;;;18.83;14.52;;;;;;;35.63;20.21;100715.41;30978512;28;96911;-64
2023/04/17 10:37:21;;;;;;;13.37;11.80;;;;;;;34.40;19.69;100699.34;30975684;28;96694;-64
2023/04/17 10:52:40;;;;;;;16.97;11.93;;;;;;;33.94;20.51;100699.75;30972589;28;97029;-63
2023/04/17 11:07:43;;;;;;;14.90;12.50;;;;;;;31.27;21.88;100701.91;30974729;28;97525;-64
2023/04/17 11:22:44;;;;;;;14.40;11.17;;;;;;;28.24;25.47;100694.88;30978950;28;96788;-62
2023/04/17 11:38:04;;;;;;;13.07;9.63;;;;;;;28.42;24.73;100698.94;30979279;28;96799;-63
2023/04/17 11:53:05;;;;;;;12.83;9.10;;;;;;;27.56;25.72;100695.97;30989185;28;98409;-63
2023/04/17 12:08:06;;;;;;;8.80;7.43;;;;;;;28.66;25.05;100682.72;30991630;28;96791;-64
2023/04/17 12:23:06;;;;;;;11.77;7.67;;;;;;;27.97;26.12;100685.03;30990017;28;97572;-63
2023/04/17 12:38:06;;;;;;;10.52;8.02;;;;;;;27.68;25.73;100676.53;30989988;28;97469;-65
2023/04/17 12:53:08;;;;;;;10.73;7.80;;;;;;;26.72;26.96;100681.47;30983908;28;96834;-62
2023/04/17 13:08:13;;;;;;;10.87;6.87;;;;;;;26.09;27.65;100672.06;30978689;28;97366;-64
2023/04/17 13:23:13;;;;;;;13.13;8.23;;;;;;;24.91;28.52;100651.84;30980485;28;96807;-62
2023/04/17 13:38:14;;;;;;;8.48;7.18;;;;;;;23.18;30.87;100655.16;30981184;28;97819;-62
2023/04/17 13:53:14;;;;;;;;;;;;;;;23.12;30.74;100646.03;30979671;28;96778;-66
2023/04/17 14:08:15;;;;;;;9.93;6.20;;;;;;;21.69;32.29;100639.09;30979565;28;100562;-64
2023/04/17 14:23:15;;;;;;;7.73;6.07;;;;;;;20.36;33.52;100627.03;30975740;28;97451;-65
2023/04/17 14:38:15;;;;;;;10.45;6.78;;;;;;;18.83;36.53;100637.88;30976308;28;104062;-65
2023/04/17 14:53:16;;;;;;;9.45;7.55;;;;;;;18.54;38.71;100637.34;30973749;28;97402;-63
2023/04/17 15:08:16;;;;;;;10.13;8.18;;;;;;;18.26;40.15;100641.16;30970250;28;97107;-65
2023/04/17 15:23:17;;;;;;;10.45;7.35;;;;;;;17.80;41.29;100641.97;30979164;28;97242;-69
2023/04/17 15:38:17;;;;;;;8.50;6.20;;;;;;;18.04;40.67;100627.09;30962146;28;96761;-65
2023/04/17 15:53:18;;;;;;;7.65;5.85;;;;;;;17.79;40.29;100634.94;30988348;28;107655;-65
2023/04/17 16:08:18;;;;;;;9.50;6.97;;;;;;;16.30;43.83;100639.19;30907282;28;112363;-67
2023/04/17 16:23:19;;;;;;;12.48;8.20;;;;;;;15.57;47.33;100649.09;30972402;28;108764;-70
2023/04/17 16:38:19;;;;;;;13.82;8.02;;;;;;;14.95;49.23;100660.41;30967629;28;97492;-71
2023/04/17 16:53:20;;;;;;;13.38;8.48;;;;;;;14.43;51.28;100657.63;31105235;28;110333;-71
2023/04/17 17:08:20;;;;;;;11.50;8.65;;;;;;;13.98;53.02;100689.72;31106325;28;97493;-70
2023/04/17 17:23:20;;;;;;;12.75;8.18;;;;;;;13.60;54.23;100705.72;31106552;28;101066;-63
2023/04/17 17:38:21;;;;;;;10.60;8.05;;;;;;;13.30;55.60;100732.28;31104776;28;97157;-70
2023/04/17 17:53:21;;;;;;;12.60;8.25;;;;;;;13.14;56.53;100738.53;31001716;28;96607;-64
2023/04/17 18:08:22;;;;;;;11.95;8.18;;;;;;;12.86;57.97;100738.97;30904408;28;96972;-63
2023/04/17 18:23:22;;;;;;;15.95;10.73;;;;;;;12.65;59.18;100750.22;30877846;28;96969;-72
2023/04/17 18:38:22;;;;;;;15.43;10.65;;;;;;;12.48;59.85;100753.91;30957072;28;100956;-70
2023/04/17 18:53:23;;;;;;;25.63;11.40;;;;;;;12.37;60.46;100771.16;30964796;28;102699;-73
2023/04/17 19:08:23;;;;;;;14.40;9.70;;;;;;;12.24;61.21;100785.00;31091041;28;97160;-67
2023/04/17 19:23:24;;;;;;;15.68;10.82;;;;;;;12.09;62.00;100792.81;30985498;28;101367;-64
2023/04/17 19:38:24;;;;;;;18.95;10.63;;;;;;;11.91;64.07;100790.28;30964043;28;97227;-71
2023/04/17 19:53:30;;;;;;;13.43;9.60;;;;;;;11.79;64.99;100794.25;30969199;28;96840;-62
2023/04/17 20:08:30;;;;;;;17.93;11.03;;;;;;;11.61;64.92;100792.53;30976917;28;96774;-68
2023/04/17 20:23:31;;;;;;;15.55;11.13;;;;;;;11.34;66.50;100794.47;30979623;28;97499;-71
2023/04/17 20:38:32;;;;;;;16.58;10.65;;;;;;;10.99;68.04;100792.78;30980508;28;97052;-75
2023/04/17 20:53:32;;;;;;;18.45;11.82;;;;;;;10.91;68.21;100792.75;30988119;28;97637;-73
2023/04/17 21:08:32;;;;;;;17.90;11.35;;;;;;;10.71;69.61;100808.91;30987339;28;96802;-66
2023/04/17 21:23:33;;;;;;;22.52;13.00;;;;;;;10.62;70.31;100820.50;30985591;28;96787;-64
2023/04/17 21:38:33;;;;;;;43.97;25.42;;;;;;;10.44;71.25;100810.75;30983623;28;96723;-70
2023/04/17 21:53:35;;;;;;;21.80;15.10;;;;;;;10.24;71.82;100815.34;30983157;28;97444;-66
2023/04/17 22:08:35;;;;;;;17.73;12.27;;;;;;;10.20;72.52;100823.78;30982729;28;96660;-68
2023/04/17 22:23:35;;;;;;;21.15;13.15;;;;;;;10.07;72.50;100824.16;30980772;28;96863;-73
2023/04/17 22:38:36;;;;;;;18.00;12.45;;;;;;;9.92;73.56;100819.38;30979331;28;96739;-65
2023/04/17 22:53:36;;;;;;;18.55;12.07;;;;;;;9.76;73.71;100814.72;30978010;28;108831;-72
2023/04/17 23:08:36;;;;;;;17.80;12.23;;;;;;;9.75;73.99;100814.88;30977514;28;105146;-72
2023/04/17 23:23:37;;;;;;;21.90;13.70;;;;;;;9.65;74.40;100809.63;30976315;28;97067;-69
2023/04/17 23:38:37;;;;;;;20.23;13.57;;;;;;;9.66;74.96;100808.59;30975318;28;99585;-71
2023/04/17 23:53:38;;;;;;;21.92;13.93;;;;;;;9.62;75.10;100802.75;30992668;28;96796;-73
